Capitol Logistics 109


PHNL
Daniel K Inouye International Airport
Honolulu, Hawaii, US
KSEA
Seattle-Tacoma International Airport
Seattle, Washington, US

Activity Log

Date Flight Route Aircraft Duration
11/24/2019 CPX109 MKK4 APACK ZOULU ZEMOM A331 ZINNO A331 SEDAR LATAY HAWKZ7 B744 5h 54m
04/26/2019 CPX109 MKK4 APACK R463 AUNTI A332 HELOP/N0481F390 40N136W 43N131W SEDAR LATAY HAWKZ7 B744 5h 04m

Route Details

Aircraft Information
Primary: Boeing 747-400BCF
Backup: Boeing 777-200LRF
Route Data
Distance: 2329nm
Sched. Duration: 5h 20m
Avg. Duration: 5h 29m (+9m)
Times Flown: 2
Recm'd Route: MKK4 APACK ZOULU ZEMOM A331 ZINNO A331 SEDAR LATAY HAWKZ7
Planned Altitude: 37,000ft
Origin Wx: PHNL 310553Z 07012KT 10SM FEW035 FEW080 OVC200 23/18 A3003 RMK AO2 SLP169 T02330178 10272 20233 53009
Dest. Wx: KSEA 310553Z 20006KT 7SM SCT009 BKN017 OVC042 06/04 A2991 RMK AO2 RAB04E46 SLP137 P0002 60003 T00560044 10072 20056 53003
Notes:

Financial History
Total Freight: 204,465lbs
Average Load: 102,233lbs/flt
Fuel Used: 211,698lbs
Avg. Fuel Used: 105,849lbs/flt
Fuel Expense: $146,072
Avg. Fuel Expense: $73,036
Avg. Fuel Cost: $0.69/lbs
Total Gross Income: $281,448
Pilot Pay: $388
Total Expenses: $30,500
Total Revenue: $102,591
Average Revenue: $140,724.23